HISTORICAL SENSOR DATA

Sensor Data Report

DB LIVE
CURRENT TIME--:--:--
DEVICE NETWORK Gateway Status
13 ESP · realtime ~1s · history 60s
Weather WS-MOD-01
OFFLINE
Actuator ACT-MOD-01
OFFLINE
Mainboard L3 MB-L3-01
ONLINE
Mainboard L5 MB-L5-01
OFFLINE
Remote AC AC-REMOTE-01
OFFLINE
PZEM L3-01 PWR-L3-01
OFFLINE
PZEM L3-02 PWR-L3-02
OFFLINE
PZEM L3-03 PWR-L3-03
OFFLINE
PZEM L3-04 PWR-L3-04
OFFLINE
PZEM L5-01 PWR-L5-01
OFFLINE
PZEM L5-02 PWR-L5-02
OFFLINE
PZEM L5-03 PWR-L5-03
OFFLINE
PZEM L5-04 PWR-L5-04
OFFLINE
REPORT FILTER

Periode & Sensor

DATABASE HISTORY
RESET
QUICK RANGE Hari ini 7 hari 30 hari
PERIODE31 Aug 2026sampai 06 Sep 2026
TOTAL DATA48,209sensor readings
MINIMUM-0.50sesuai filter
AVERAGE93.77sesuai filter
MAXIMUM32,564.20sesuai filter
REPORT RESULT

Data Sensor

31/08/2026 — 06/09/2026 EXPORT CSV
NOTANGGALWAKTUDEVICECHANNELSENSORVALUEUNIT
2401 06/09/2026 17:13:00 MB-L3-01Mainboard Lantai 3 L3-AI-06 Analog Input 6 3.12 V
2402 06/09/2026 17:13:00 MB-L3-01Mainboard Lantai 3 L3-LUX-06 Illuminance / LUX 6 235.80 lux
2403 06/09/2026 17:13:00 MB-L3-01Mainboard Lantai 3 L3-RAD-02 Radiation 2 1.00 W/m²
2404 06/09/2026 17:13:00 MB-L3-01Mainboard Lantai 3 L3-LUX-04 Illuminance / LUX 4 69.60 lux
2405 06/09/2026 17:13:00 MB-L3-01Mainboard Lantai 3 L3-SHT-03-T SHT20 3 Temperature 29.80 °C
2406 06/09/2026 17:13:00 MB-L3-01Mainboard Lantai 3 L3-AI-01 Analog Input 1 3.12 V
2407 06/09/2026 17:13:00 MB-L3-01Mainboard Lantai 3 L3-SHT-01-RH SHT20 1 Humidity 41.50 %RH
2408 06/09/2026 17:13:00 MB-L3-01Mainboard Lantai 3 L3-AI-04 Analog Input 4 3.12 V
2409 06/09/2026 17:13:00 MB-L3-01Mainboard Lantai 3 L3-LUX-05 Illuminance / LUX 5 333.30 lux
2410 06/09/2026 17:13:00 MB-L3-01Mainboard Lantai 3 L3-SHT-02-T SHT20 2 Temperature 29.90 °C
2411 06/09/2026 17:13:00 MB-L3-01Mainboard Lantai 3 L3-AI-02 Analog Input 2 3.12 V
2412 06/09/2026 17:13:00 MB-L3-01Mainboard Lantai 3 L3-RAD-01 Radiation 1 1.00 W/m²
2413 06/09/2026 17:13:00 MB-L3-01Mainboard Lantai 3 L3-SHT-03-RH SHT20 3 Humidity 41.90 %RH
2414 06/09/2026 17:13:00 MB-L3-01Mainboard Lantai 3 L3-SHT-01-T SHT20 1 Temperature 29.70 °C
2415 06/09/2026 17:13:00 MB-L3-01Mainboard Lantai 3 L3-AI-05 Analog Input 5 3.12 V
2416 06/09/2026 17:12:00 MB-L3-01Mainboard Lantai 3 L3-AI-03 Analog Input 3 3.12 V
2417 06/09/2026 17:12:00 MB-L3-01Mainboard Lantai 3 L3-LUX-02 Illuminance / LUX 2 110.40 lux
2418 06/09/2026 17:12:00 MB-L3-01Mainboard Lantai 3 L3-AI-06 Analog Input 6 3.12 V
2419 06/09/2026 17:12:00 MB-L3-01Mainboard Lantai 3 L3-LUX-06 Illuminance / LUX 6 251.40 lux
2420 06/09/2026 17:12:00 MB-L3-01Mainboard Lantai 3 L3-RAD-02 Radiation 2 1.00 W/m²
2421 06/09/2026 17:12:00 MB-L3-01Mainboard Lantai 3 L3-LUX-04 Illuminance / LUX 4 72.30 lux
2422 06/09/2026 17:12:00 MB-L3-01Mainboard Lantai 3 L3-SHT-03-T SHT20 3 Temperature 29.70 °C
2423 06/09/2026 17:12:00 MB-L3-01Mainboard Lantai 3 L3-AI-01 Analog Input 1 3.12 V
2424 06/09/2026 17:12:00 MB-L3-01Mainboard Lantai 3 L3-SHT-01-RH SHT20 1 Humidity 41.40 %RH
2425 06/09/2026 17:12:00 MB-L3-01Mainboard Lantai 3 L3-AI-04 Analog Input 4 3.12 V
2426 06/09/2026 17:12:00 MB-L3-01Mainboard Lantai 3 L3-LUX-05 Illuminance / LUX 5 346.00 lux
2427 06/09/2026 17:12:00 MB-L3-01Mainboard Lantai 3 L3-SHT-02-T SHT20 2 Temperature 29.90 °C
2428 06/09/2026 17:12:00 MB-L3-01Mainboard Lantai 3 L3-AI-02 Analog Input 2 3.12 V
2429 06/09/2026 17:12:00 MB-L3-01Mainboard Lantai 3 L3-RAD-01 Radiation 1 1.00 W/m²
2430 06/09/2026 17:12:00 MB-L3-01Mainboard Lantai 3 L3-SHT-03-RH SHT20 3 Humidity 41.90 %RH
2431 06/09/2026 17:12:00 MB-L3-01Mainboard Lantai 3 L3-SHT-01-T SHT20 1 Temperature 29.80 °C
2432 06/09/2026 17:12:00 MB-L3-01Mainboard Lantai 3 L3-AI-05 Analog Input 5 3.12 V
2433 06/09/2026 17:12:00 MB-L3-01Mainboard Lantai 3 L3-LUX-03 Illuminance / LUX 3 127.70 lux
2434 06/09/2026 17:12:00 MB-L3-01Mainboard Lantai 3 L3-SHT-02-RH SHT20 2 Humidity 41.20 %RH
2435 06/09/2026 17:12:00 MB-L3-01Mainboard Lantai 3 L3-LUX-01 Illuminance / LUX 1 74.40 lux
2436 06/09/2026 17:11:00 MB-L3-01Mainboard Lantai 3 L3-LUX-04 Illuminance / LUX 4 74.60 lux
2437 06/09/2026 17:11:00 MB-L3-01Mainboard Lantai 3 L3-SHT-03-T SHT20 3 Temperature 29.90 °C
2438 06/09/2026 17:11:00 MB-L3-01Mainboard Lantai 3 L3-AI-01 Analog Input 1 3.12 V
2439 06/09/2026 17:11:00 MB-L3-01Mainboard Lantai 3 L3-SHT-01-RH SHT20 1 Humidity 41.30 %RH
2440 06/09/2026 17:11:00 MB-L3-01Mainboard Lantai 3 L3-AI-04 Analog Input 4 3.12 V
2441 06/09/2026 17:11:00 MB-L3-01Mainboard Lantai 3 L3-LUX-05 Illuminance / LUX 5 357.80 lux
2442 06/09/2026 17:11:00 MB-L3-01Mainboard Lantai 3 L3-SHT-02-T SHT20 2 Temperature 30.00 °C
2443 06/09/2026 17:11:00 MB-L3-01Mainboard Lantai 3 L3-AI-02 Analog Input 2 3.12 V
2444 06/09/2026 17:11:00 MB-L3-01Mainboard Lantai 3 L3-RAD-01 Radiation 1 1.00 W/m²
2445 06/09/2026 17:11:00 MB-L3-01Mainboard Lantai 3 L3-SHT-03-RH SHT20 3 Humidity 41.80 %RH
2446 06/09/2026 17:11:00 MB-L3-01Mainboard Lantai 3 L3-SHT-01-T SHT20 1 Temperature 29.80 °C
2447 06/09/2026 17:11:00 MB-L3-01Mainboard Lantai 3 L3-AI-05 Analog Input 5 3.12 V
2448 06/09/2026 17:11:00 MB-L3-01Mainboard Lantai 3 L3-LUX-03 Illuminance / LUX 3 131.00 lux
2449 06/09/2026 17:11:00 MB-L3-01Mainboard Lantai 3 L3-SHT-02-RH SHT20 2 Humidity 41.20 %RH
2450 06/09/2026 17:11:00 MB-L3-01Mainboard Lantai 3 L3-LUX-01 Illuminance / LUX 1 77.40 lux
2451 06/09/2026 17:11:00 MB-L3-01Mainboard Lantai 3 L3-AI-03 Analog Input 3 3.12 V
2452 06/09/2026 17:11:00 MB-L3-01Mainboard Lantai 3 L3-LUX-02 Illuminance / LUX 2 113.50 lux
2453 06/09/2026 17:11:00 MB-L3-01Mainboard Lantai 3 L3-AI-06 Analog Input 6 3.12 V
2454 06/09/2026 17:11:00 MB-L3-01Mainboard Lantai 3 L3-LUX-06 Illuminance / LUX 6 260.60 lux
2455 06/09/2026 17:11:00 MB-L3-01Mainboard Lantai 3 L3-RAD-02 Radiation 2 1.00 W/m²
2456 06/09/2026 17:10:00 MB-L3-01Mainboard Lantai 3 L3-SHT-02-T SHT20 2 Temperature 29.90 °C
2457 06/09/2026 17:10:00 MB-L3-01Mainboard Lantai 3 L3-AI-02 Analog Input 2 3.12 V
2458 06/09/2026 17:10:00 MB-L3-01Mainboard Lantai 3 L3-RAD-01 Radiation 1 1.00 W/m²
2459 06/09/2026 17:10:00 MB-L3-01Mainboard Lantai 3 L3-SHT-03-RH SHT20 3 Humidity 41.60 %RH
2460 06/09/2026 17:10:00 MB-L3-01Mainboard Lantai 3 L3-SHT-01-T SHT20 1 Temperature 29.80 °C
2461 06/09/2026 17:10:00 MB-L3-01Mainboard Lantai 3 L3-AI-05 Analog Input 5 3.12 V
2462 06/09/2026 17:10:00 MB-L3-01Mainboard Lantai 3 L3-LUX-03 Illuminance / LUX 3 133.70 lux
2463 06/09/2026 17:10:00 MB-L3-01Mainboard Lantai 3 L3-SHT-02-RH SHT20 2 Humidity 41.20 %RH
2464 06/09/2026 17:10:00 MB-L3-01Mainboard Lantai 3 L3-LUX-01 Illuminance / LUX 1 79.70 lux
2465 06/09/2026 17:10:00 MB-L3-01Mainboard Lantai 3 L3-AI-03 Analog Input 3 3.12 V
2466 06/09/2026 17:10:00 MB-L3-01Mainboard Lantai 3 L3-LUX-02 Illuminance / LUX 2 116.40 lux
2467 06/09/2026 17:10:00 MB-L3-01Mainboard Lantai 3 L3-AI-06 Analog Input 6 3.12 V
2468 06/09/2026 17:10:00 MB-L3-01Mainboard Lantai 3 L3-LUX-06 Illuminance / LUX 6 268.80 lux
2469 06/09/2026 17:10:00 MB-L3-01Mainboard Lantai 3 L3-RAD-02 Radiation 2 1.00 W/m²
2470 06/09/2026 17:10:00 MB-L3-01Mainboard Lantai 3 L3-LUX-04 Illuminance / LUX 4 76.50 lux
2471 06/09/2026 17:10:00 MB-L3-01Mainboard Lantai 3 L3-SHT-03-T SHT20 3 Temperature 29.90 °C
2472 06/09/2026 17:10:00 MB-L3-01Mainboard Lantai 3 L3-AI-01 Analog Input 1 3.12 V
2473 06/09/2026 17:10:00 MB-L3-01Mainboard Lantai 3 L3-SHT-01-RH SHT20 1 Humidity 41.40 %RH
2474 06/09/2026 17:10:00 MB-L3-01Mainboard Lantai 3 L3-AI-04 Analog Input 4 3.12 V
2475 06/09/2026 17:10:00 MB-L3-01Mainboard Lantai 3 L3-LUX-05 Illuminance / LUX 5 369.20 lux
2476 06/09/2026 17:09:00 MB-L3-01Mainboard Lantai 3 L3-AI-02 Analog Input 2 3.12 V
2477 06/09/2026 17:09:00 MB-L3-01Mainboard Lantai 3 L3-RAD-01 Radiation 1 1.00 W/m²
2478 06/09/2026 17:09:00 MB-L3-01Mainboard Lantai 3 L3-SHT-03-RH SHT20 3 Humidity 41.60 %RH
2479 06/09/2026 17:09:00 MB-L3-01Mainboard Lantai 3 L3-SHT-01-T SHT20 1 Temperature 29.90 °C
2480 06/09/2026 17:09:00 MB-L3-01Mainboard Lantai 3 L3-AI-05 Analog Input 5 3.12 V
2481 06/09/2026 17:09:00 MB-L3-01Mainboard Lantai 3 L3-LUX-03 Illuminance / LUX 3 136.70 lux
2482 06/09/2026 17:09:00 MB-L3-01Mainboard Lantai 3 L3-SHT-02-RH SHT20 2 Humidity 41.10 %RH
2483 06/09/2026 17:09:00 MB-L3-01Mainboard Lantai 3 L3-LUX-01 Illuminance / LUX 1 82.20 lux
2484 06/09/2026 17:09:00 MB-L3-01Mainboard Lantai 3 L3-AI-03 Analog Input 3 3.12 V
2485 06/09/2026 17:09:00 MB-L3-01Mainboard Lantai 3 L3-LUX-02 Illuminance / LUX 2 119.40 lux
2486 06/09/2026 17:09:00 MB-L3-01Mainboard Lantai 3 L3-AI-06 Analog Input 6 3.12 V
2487 06/09/2026 17:09:00 MB-L3-01Mainboard Lantai 3 L3-LUX-06 Illuminance / LUX 6 275.20 lux
2488 06/09/2026 17:09:00 MB-L3-01Mainboard Lantai 3 L3-RAD-02 Radiation 2 1.00 W/m²
2489 06/09/2026 17:09:00 MB-L3-01Mainboard Lantai 3 L3-LUX-04 Illuminance / LUX 4 78.50 lux
2490 06/09/2026 17:09:00 MB-L3-01Mainboard Lantai 3 L3-SHT-03-T SHT20 3 Temperature 29.90 °C
2491 06/09/2026 17:09:00 MB-L3-01Mainboard Lantai 3 L3-AI-01 Analog Input 1 3.12 V
2492 06/09/2026 17:09:00 MB-L3-01Mainboard Lantai 3 L3-SHT-01-RH SHT20 1 Humidity 41.30 %RH
2493 06/09/2026 17:09:00 MB-L3-01Mainboard Lantai 3 L3-AI-04 Analog Input 4 3.12 V
2494 06/09/2026 17:09:00 MB-L3-01Mainboard Lantai 3 L3-LUX-05 Illuminance / LUX 5 380.70 lux
2495 06/09/2026 17:09:00 MB-L3-01Mainboard Lantai 3 L3-SHT-02-T SHT20 2 Temperature 29.90 °C
2496 06/09/2026 17:08:00 MB-L3-01Mainboard Lantai 3 L3-AI-03 Analog Input 3 3.12 V
2497 06/09/2026 17:08:00 MB-L3-01Mainboard Lantai 3 L3-LUX-02 Illuminance / LUX 2 123.50 lux
2498 06/09/2026 17:08:00 MB-L3-01Mainboard Lantai 3 L3-AI-06 Analog Input 6 3.12 V
2499 06/09/2026 17:08:00 MB-L3-01Mainboard Lantai 3 L3-LUX-06 Illuminance / LUX 6 287.20 lux
2500 06/09/2026 17:08:00 MB-L3-01Mainboard Lantai 3 L3-RAD-02 Radiation 2 1.00 W/m²
Menampilkan maksimal 100 data per halaman